Time;durP1;ratioP1;P1;durP2;ratioP2;P2;SDS_P1;SDS_P2;PMS_P1;PMS_P2;Temp;Humidity;BMP_temperature;BMP_pressure;BME280_temperature;BME280_humidity;BME280_pressure;Samples;Min_cycle;Max_cycle;Signal;HPM_P1;HPM_P2
2023/01/20 00:01:26;;;;;;;80.38;35.30;;;;;;;3.10;100.00;100682.78;5024680;28;20056;-74
2023/01/20 00:03:55;;;;;;;66.38;29.55;;;;;;;3.10;100.00;100678.09;5026675;28;20057;-75
2023/01/20 00:06:23;;;;;;;33.42;15.23;;;;;;;3.03;100.00;100682.59;5022846;28;20049;-76
2023/01/20 00:08:51;;;;;;;43.63;15.82;;;;;;;2.95;100.00;100678.84;5006715;28;20056;-75
2023/01/20 00:11:18;;;;;;;37.15;15.23;;;;;;;2.98;100.00;100688.28;5022990;28;20053;-75
2023/01/20 00:13:44;;;;;;;39.22;18.52;;;;;;;2.95;100.00;100686.25;5022952;28;20048;-75
2023/01/20 00:16:11;;;;;;;51.53;18.63;;;;;;;2.96;100.00;100685.91;5023425;28;20045;-76
2023/01/20 00:18:39;;;;;;;85.97;33.00;;;;;;;3.02;100.00;100689.19;5022546;28;20052;-75
2023/01/20 00:21:11;;;;;;;77.80;34.88;;;;;;;2.97;100.00;100682.00;5025506;28;20064;-74
2023/01/20 00:23:39;;;;;;;74.40;32.10;;;;;;;2.88;100.00;100678.66;5024066;28;20055;-74
2023/01/20 00:26:09;;;;;;;75.00;34.08;;;;;;;2.98;100.00;100689.09;5025991;28;20049;-74
2023/01/20 00:28:37;;;;;;;70.60;32.65;;;;;;;2.98;100.00;100696.47;5028057;28;20056;-76
2023/01/20 00:31:09;;;;;;;74.15;33.92;;;;;;;2.98;100.00;100686.34;5024228;28;20964;-75
2023/01/20 00:33:36;;;;;;;62.97;22.40;;;;;;;2.91;100.00;100690.81;5024527;28;20515;-76
2023/01/20 00:36:02;;;;;;;69.32;29.20;;;;;;;2.95;100.00;100700.72;5025601;28;20045;-75
2023/01/20 00:38:29;;;;;;;84.22;34.75;;;;;;;3.00;100.00;100699.69;5025172;28;20838;-74
2023/01/20 00:40:55;;;;;;;35.45;16.17;;;;;;;2.78;100.00;100688.09;5027537;28;20124;-76
2023/01/20 00:43:22;;;;;;;21.65;9.60;;;;;;;2.85;100.00;100700.38;5026100;28;20048;-75
2023/01/20 00:45:48;;;;;;;62.05;29.23;;;;;;;2.69;100.00;100714.78;5018679;28;20052;-75
2023/01/20 00:48:15;;;;;;;17.13;9.00;;;;;;;2.84;100.00;100716.00;5026928;28;20045;-74
2023/01/20 00:50:42;;;;;;;62.83;26.75;;;;;;;2.72;100.00;100716.03;5026907;28;20052;-74
2023/01/20 00:53:09;;;;;;;44.47;22.33;;;;;;;2.76;100.00;100716.91;5025554;28;20053;-74
2023/01/20 00:55:35;;;;;;;64.78;28.63;;;;;;;2.71;100.00;100720.69;5026102;28;20048;-75
2023/01/20 00:58:02;;;;;;;50.95;23.50;;;;;;;2.82;100.00;100717.47;5025039;28;20065;-75
2023/01/20 01:00:28;;;;;;;23.60;12.07;;;;;;;2.81;100.00;100713.97;5026304;28;20041;-76
2023/01/20 01:02:55;;;;;;;79.10;33.85;;;;;;;2.83;100.00;100713.63;5015220;28;20057;-76
2023/01/20 01:05:22;;;;;;;90.05;38.30;;;;;;;2.84;100.00;100715.19;5024078;28;20076;-77
2023/01/20 01:07:48;;;;;;;61.88;24.75;;;;;;;2.82;100.00;100718.28;5039291;28;20041;-75
2023/01/20 01:10:15;;;;;;;59.85;24.88;;;;;;;2.81;100.00;100715.88;5047857;28;20048;-76
2023/01/20 01:12:42;;;;;;;85.38;38.03;;;;;;;2.78;100.00;100725.59;5046292;28;20423;-75
2023/01/20 01:15:09;;;;;;;57.38;24.48;;;;;;;2.72;100.00;100722.28;5048243;28;20047;-74
2023/01/20 01:17:35;;;;;;;56.45;24.38;;;;;;;2.61;100.00;100715.69;5047032;28;20051;-74
2023/01/20 01:20:03;;;;;;;73.70;29.33;;;;;;;2.79;100.00;100729.91;5048441;28;20056;-75
2023/01/20 01:22:31;;;;;;;79.90;31.27;;;;;;;2.76;100.00;100727.06;5042562;28;20052;-73
2023/01/20 01:24:58;;;;;;;78.40;33.92;;;;;;;2.74;100.00;100736.38;5047155;28;20530;-75
2023/01/20 01:27:26;;;;;;;96.03;38.05;;;;;;;2.85;100.00;100738.66;5033059;28;20056;-74
2023/01/20 01:29:54;;;;;;;96.93;38.72;;;;;;;2.85;100.00;100744.91;5047838;28;20041;-74
2023/01/20 01:32:21;;;;;;;101.13;42.17;;;;;;;2.81;100.00;100745.94;5045751;28;20045;-75
2023/01/20 01:34:48;;;;;;;66.43;27.33;;;;;;;2.71;100.00;100749.97;5048058;28;20456;-74
2023/01/20 01:37:14;;;;;;;99.68;42.03;;;;;;;2.78;100.00;100746.63;5045741;28;20423;-73
2023/01/20 01:39:41;;;;;;;85.57;34.13;;;;;;;2.75;100.00;100753.59;5039970;28;20037;-75
2023/01/20 01:42:19;;;;;;;100.90;41.88;;;;;;;2.85;100.00;100757.78;5046930;28;20053;-74
2023/01/20 01:45:10;;;;;;;95.45;38.28;;;;;;;2.82;100.00;100758.47;5039760;28;20056;-74
2023/01/20 01:47:48;;;;;;;105.88;40.47;;;;;;;2.78;100.00;100748.22;5044627;28;20075;-73
2023/01/20 01:50:25;;;;;;;18.52;10.88;;;;;;;2.65;100.00;100751.31;5047800;28;20128;-74
2023/01/20 01:52:54;;;;;;;85.43;37.70;;;;;;;2.74;100.00;100762.94;5045890;28;20055;-74
2023/01/20 01:55:26;;;;;;;96.63;37.42;;;;;;;2.80;100.00;100764.25;5029483;28;20052;-72
2023/01/20 01:57:54;;;;;;;96.82;39.53;;;;;;;2.84;100.00;100765.19;5033629;28;20615;-74
2023/01/20 02:00:21;;;;;;;78.43;34.13;;;;;;;2.81;100.00;100768.63;5046786;28;20041;-73
2023/01/20 02:02:48;;;;;;;81.13;32.95;;;;;;;2.78;100.00;100773.97;5046593;28;20049;-75
2023/01/20 02:05:16;;;;;;;61.80;24.75;;;;;;;2.77;100.00;100767.72;5046774;28;20784;-73
2023/01/20 02:07:46;;;;;;;89.85;34.20;;;;;;;2.80;100.00;100779.88;5046580;28;20565;-74
2023/01/20 02:10:14;;;;;;;75.60;27.80;;;;;;;2.78;100.00;100776.69;5046385;28;20478;-73
2023/01/20 02:12:48;;;;;;;68.43;28.77;;;;;;;2.77;100.00;100775.91;5046433;28;20053;-72
2023/01/20 02:15:16;;;;;;;29.40;10.88;;;;;;;2.72;100.00;100771.47;5046501;28;20072;-75
2023/01/20 02:17:59;;;;;;;76.78;36.70;;;;;;;2.82;100.00;100772.94;5046359;28;20053;-75
2023/01/20 02:20:44;;;;;;;75.00;31.75;;;;;;;2.85;100.00;100779.63;5046809;28;20393;-75
2023/01/20 02:23:26;;;;;;;75.70;34.55;;;;;;;2.89;100.00;100781.34;5045931;28;20045;-74
2023/01/20 02:26:15;;;;;;;35.35;14.20;;;;;;;2.82;100.00;100777.59;5040494;28;20048;-75
2023/01/20 02:29:03;;;;;;;55.30;19.95;;;;;;;2.74;100.00;100780.09;5032765;28;20051;-75
2023/01/20 02:32:06;;;;;;;13.05;6.18;;;;;;;2.73;100.00;100785.91;5042979;28;20507;-74
2023/01/20 02:35:00;;;;;;;42.80;19.38;;;;;;;2.76;100.00;100790.69;5045557;28;20049;-75
2023/01/20 02:37:32;;;;;;;60.67;23.95;;;;;;;2.74;100.00;100791.03;5046786;28;20079;-72
2023/01/20 02:40:07;;;;;;;43.42;18.30;;;;;;;2.74;100.00;100784.78;5046474;28;20044;-74
2023/01/20 02:42:44;;;;;;;39.00;16.73;;;;;;;2.64;100.00;100788.75;5043932;28;20049;-74
2023/01/20 02:45:32;;;;;;;41.15;16.55;;;;;;;2.68;100.00;100799.81;5046404;28;20069;-74
2023/01/20 02:48:25;;;;;;;23.95;11.25;;;;;;;2.65;100.00;100798.56;5041375;28;20044;-75
2023/01/20 02:51:04;;;;;;;64.50;25.75;;;;;;;2.69;100.00;100796.75;5031595;28;20048;-75
2023/01/20 02:53:39;;;;;;;42.08;16.23;;;;;;;2.71;100.00;100796.41;5046256;28;20518;-75
2023/01/20 02:56:08;;;;;;;39.17;17.23;;;;;;;2.75;100.00;100797.31;5046965;28;20379;-74
2023/01/20 02:58:56;;;;;;;62.17;27.00;;;;;;;2.69;100.00;100796.75;5031204;28;20495;-75
2023/01/20 03:01:30;;;;;;;50.75;20.13;;;;;;;2.72;100.00;100801.53;5048787;28;20137;-74
2023/01/20 03:03:59;;;;;;;77.00;32.50;;;;;;;2.73;100.00;100805.03;5031219;28;20052;-73
2023/01/20 03:06:37;;;;;;;47.92;19.92;;;;;;;2.75;100.00;100813.69;5048899;28;20345;-75
2023/01/20 03:09:08;;;;;;;39.85;16.48;;;;;;;2.72;100.00;100803.44;5049485;28;20430;-73
2023/01/20 03:11:42;;;;;;;77.03;32.20;;;;;;;2.73;100.00;100810.50;5050109;28;20045;-75
2023/01/20 03:14:12;;;;;;;76.07;35.17;;;;;;;2.72;100.00;100803.44;5050117;28;20404;-75
2023/01/20 03:16:40;;;;;;;75.78;31.83;;;;;;;2.77;100.00;100805.16;5047554;28;20052;-75
2023/01/20 03:19:07;;;;;;;74.20;30.15;;;;;;;2.72;100.00;100808.91;5050282;28;20132;-75
2023/01/20 03:21:34;;;;;;;71.60;29.58;;;;;;;2.66;100.00;100800.16;5047920;28;20045;-74
2023/01/20 03:24:03;;;;;;;33.38;13.75;;;;;;;2.68;100.00;100813.47;5049375;28;20052;-74
2023/01/20 03:26:30;;;;;;;59.13;25.90;;;;;;;2.69;100.00;100817.78;5049432;28;20041;-75
2023/01/20 03:28:57;;;;;;;27.48;11.82;;;;;;;2.66;100.00;100827.47;5043812;28;20041;-75
2023/01/20 03:31:35;;;;;;;69.57;28.23;;;;;;;2.74;100.00;100818.34;5049915;28;20032;-73
2023/01/20 03:34:09;;;;;;;50.95;23.73;;;;;;;2.69;100.00;100821.34;5047954;28;20041;-73
2023/01/20 03:36:37;;;;;;;30.13;13.88;;;;;;;2.57;100.00;100818.59;5049219;28;20077;-75
2023/01/20 03:39:05;;;;;;;61.58;27.05;;;;;;;2.63;100.00;100816.41;5049454;28;20049;-73
2023/01/20 03:42:08;;;;;;;78.07;33.00;;;;;;;2.71;100.00;100826.44;5049326;28;20055;-75
2023/01/20 03:45:05;;;;;;;20.70;10.10;;;;;;;2.62;100.00;100831.22;5049089;28;20153;-73
2023/01/20 03:47:44;;;;;;;70.13;29.23;;;;;;;2.65;100.00;100830.53;5049530;28;20124;-75
2023/01/20 03:50:22;;;;;;;85.78;35.40;;;;;;;2.69;100.00;100831.44;5046687;28;20047;-74
2023/01/20 03:52:56;;;;;;;77.97;31.17;;;;;;;2.69;100.00;100832.25;5040939;28;20044;-73
2023/01/20 03:55:33;;;;;;;81.15;34.00;;;;;;;2.69;100.00;100839.66;5049796;28;20090;-74
2023/01/20 03:58:03;;;;;;;76.50;32.47;;;;;;;2.61;100.00;100835.88;5048902;28;20051;-75
2023/01/20 04:00:34;;;;;;;63.88;26.40;;;;;;;2.52;100.00;100850.78;5047142;28;20041;-73
2023/01/20 04:03:06;;;;;;;45.13;19.10;;;;;;;2.60;100.00;100845.22;5046373;28;20533;-74
2023/01/20 04:05:33;;;;;;;70.88;32.30;;;;;;;2.62;100.00;100845.69;5047457;28;20053;-75
2023/01/20 04:08:04;;;;;;;34.22;13.55;;;;;;;2.52;100.00;100837.94;5049902;28;20045;-74
2023/01/20 04:10:34;;;;;;;55.80;22.90;;;;;;;2.55;100.00;100847.38;5046509;28;20061;-76
2023/01/20 04:13:00;;;;;;;81.22;31.17;;;;;;;2.57;100.00;100842.41;5048054;28;20052;-74
2023/01/20 04:15:31;;;;;;;87.35;36.33;;;;;;;2.64;100.00;100848.84;5048284;28;20044;-75
2023/01/20 04:18:09;;;;;;;76.07;32.63;;;;;;;2.59;100.00;100853.75;5048616;28;20071;-74
2023/01/20 04:20:36;;;;;;;50.95;23.40;;;;;;;2.57;100.00;100853.31;5048454;28;20041;-75
2023/01/20 04:23:05;;;;;;;59.08;25.58;;;;;;;2.57;100.00;100858.78;5048625;28;20049;-74
2023/01/20 04:25:32;;;;;;;83.78;35.88;;;;;;;2.61;100.00;100854.22;5048865;28;20119;-74
2023/01/20 04:27:58;;;;;;;85.07;34.45;;;;;;;2.61;100.00;100862.41;5048746;28;20049;-74
2023/01/20 04:30:25;;;;;;;29.33;12.85;;;;;;;2.57;100.00;100864.25;5048852;28;20063;-74
2023/01/20 04:32:51;;;;;;;57.83;23.48;;;;;;;2.60;100.00;100866.31;5046180;28;20044;-74
2023/01/20 04:35:19;;;;;;;65.25;26.00;;;;;;;2.60;100.00;100863.56;5046533;28;20044;-73
2023/01/20 04:37:45;;;;;;;48.30;19.83;;;;;;;2.55;100.00;100869.25;5048621;28;20053;-73
2023/01/20 04:40:12;;;;;;;72.35;30.77;;;;;;;2.58;100.00;100861.19;5048664;28;20037;-74
2023/01/20 04:42:38;;;;;;;71.20;30.40;;;;;;;2.50;100.00;100845.66;5047927;28;20049;-73
2023/01/20 04:45:05;;;;;;;76.43;33.67;;;;;;;2.61;100.00;100862.41;5048850;28;20053;-75
2023/01/20 04:47:32;;;;;;;75.93;31.58;;;;;;;2.68;100.00;100873.56;5048319;28;20360;-75
2023/01/20 04:49:59;;;;;;;70.00;27.45;;;;;;;2.63;100.00;100873.78;5047558;28;20149;-73
2023/01/20 04:52:25;;;;;;;65.43;26.70;;;;;;;2.61;100.00;100876.09;5044986;28;20077;-74
2023/01/20 04:54:52;;;;;;;53.67;22.58;;;;;;;2.56;100.00;100876.28;5047676;28;20052;-75
2023/01/20 04:57:18;;;;;;;71.75;28.75;;;;;;;2.62;100.00;100877.66;5048658;28;20243;-72
2023/01/20 04:59:45;;;;;;;69.78;26.35;;;;;;;2.62;100.00;100880.41;5047871;28;20049;-75
2023/01/20 05:02:11;;;;;;;55.95;20.90;;;;;;;2.59;100.00;100883.81;5047217;28;20048;-75
2023/01/20 05:04:38;;;;;;;42.22;18.55;;;;;;;2.57;100.00;100880.63;5042585;28;20561;-74
2023/01/20 05:07:04;;;;;;;66.00;26.80;;;;;;;2.58;100.00;100887.69;5046111;28;20049;-75
2023/01/20 05:09:31;;;;;;;48.72;22.00;;;;;;;2.61;100.00;100884.28;5048008;28;20057;-75
2023/01/20 05:11:57;;;;;;;28.23;11.88;;;;;;;2.53;100.00;100885.97;5048076;28;20068;-74
2023/01/20 05:14:24;;;;;;;55.38;22.50;;;;;;;2.62;100.00;100888.59;5046271;28;20086;-74
2023/01/20 05:16:50;;;;;;;38.92;15.45;;;;;;;2.56;100.00;100884.47;5047922;28;20048;-74
2023/01/20 05:19:17;;;;;;;64.72;27.05;;;;;;;2.62;100.00;100892.13;5047764;28;20045;-73
2023/01/20 05:21:43;;;;;;;35.50;13.85;;;;;;;2.58;100.00;100891.22;5046095;28;20041;-75
2023/01/20 05:24:10;;;;;;;53.63;20.50;;;;;;;2.57;100.00;100891.56;5046850;28;20592;-71
2023/01/20 05:26:36;;;;;;;44.85;16.52;;;;;;;2.56;100.00;100889.94;5047378;28;20048;-75
2023/01/20 05:29:03;;;;;;;25.90;9.88;;;;;;;2.60;100.00;100894.41;5047168;28;20045;-73
2023/01/20 05:31:30;;;;;;;24.05;9.73;;;;;;;2.55;100.00;100891.91;5047106;28;20041;-74
2023/01/20 05:33:57;;;;;;;76.82;29.23;;;;;;;2.66;100.00;100897.69;5046902;28;20403;-75
2023/01/20 05:36:23;;;;;;;20.98;10.43;;;;;;;2.57;100.00;100905.22;5043865;28;20059;-74
2023/01/20 05:38:49;;;;;;;57.55;25.35;;;;;;;2.63;100.00;100904.66;5048064;28;20045;-73
2023/01/20 05:41:16;;;;;;;26.02;10.65;;;;;;;2.57;100.00;100907.94;5046574;28;20550;-75
2023/01/20 05:43:42;;;;;;;39.95;16.48;;;;;;;2.60;100.00;100916.25;5046912;28;20623;-75
2023/01/20 05:46:09;;;;;;;21.60;9.90;;;;;;;2.54;100.00;100912.13;5047565;28;20059;-73
2023/01/20 05:48:36;;;;;;;34.50;13.65;;;;;;;2.58;100.00;100917.72;5046620;28;20060;-73
2023/01/20 05:51:02;;;;;;;41.35;14.02;;;;;;;2.53;100.00;100916.00;5045641;28;20554;-74
2023/01/20 05:53:29;;;;;;;16.25;7.70;;;;;;;2.58;100.00;100918.53;5046882;28;20051;-74
2023/01/20 05:56:03;;;;;;;42.05;17.65;;;;;;;2.63;100.00;100915.56;5031210;28;20061;-74
2023/01/20 05:58:30;;;;;;;21.88;10.00;;;;;;;2.56;100.00;100915.34;5029149;28;20055;-74
2023/01/20 06:01:11;;;;;;;28.80;8.57;;;;;;;2.63;100.00;100920.22;5029536;28;20049;-74
2023/01/20 06:03:38;;;;;;;28.70;10.73;;;;;;;2.63;100.00;100917.50;5046103;28;20060;-74
2023/01/20 06:06:13;;;;;;;36.33;13.63;;;;;;;2.55;100.00;100926.59;5046955;28;20045;-74
2023/01/20 06:08:39;;;;;;;41.65;14.07;;;;;;;2.65;100.00;100921.50;5046162;28;20473;-74
2023/01/20 06:11:06;;;;;;;30.63;13.15;;;;;;;2.63;100.00;100928.44;5047007;28;20045;-74
2023/01/20 06:13:34;;;;;;;44.42;18.50;;;;;;;2.64;100.00;100930.81;5046543;28;20664;-75
2023/01/20 06:16:00;;;;;;;21.15;8.38;;;;;;;2.55;100.00;100916.47;5045023;28;20052;-74
2023/01/20 06:18:29;;;;;;;54.75;22.42;;;;;;;2.69;100.00;100929.81;5047323;28;20049;-75
2023/01/20 06:20:57;;;;;;;42.50;15.85;;;;;;;2.63;100.00;100929.22;5047464;28;20048;-76
2023/01/20 06:23:25;;;;;;;28.73;11.73;;;;;;;2.63;100.00;100931.97;5042574;28;20415;-74
2023/01/20 06:26:03;;;;;;;50.60;20.60;;;;;;;2.71;100.00;100943.94;5047354;28;20059;-73
2023/01/20 06:28:31;;;;;;;48.63;17.38;;;;;;;2.70;100.00;100936.84;5047400;28;20041;-74
2023/01/20 06:31:02;;;;;;;46.90;18.50;;;;;;;2.69;100.00;100941.53;5045156;28;20076;-73
2023/01/20 06:33:29;;;;;;;20.02;8.13;;;;;;;2.62;100.00;100937.75;5048833;28;20041;-73
2023/01/20 06:35:56;;;;;;;47.03;19.90;;;;;;;2.71;100.00;100941.19;5030805;28;20144;-73
2023/01/20 06:38:25;;;;;;;38.58;16.98;;;;;;;2.64;100.00;100940.97;5047845;28;20050;-74
2023/01/20 06:40:56;;;;;;;24.70;9.88;;;;;;;2.62;100.00;100935.03;5047567;28;20061;-76
2023/01/20 06:43:33;;;;;;;33.65;13.85;;;;;;;2.67;100.00;100937.56;5050070;28;20057;-72
2023/01/20 06:46:04;;;;;;;30.33;12.98;;;;;;;2.66;100.00;100946.88;5034157;28;20053;-73
2023/01/20 06:48:31;;;;;;;26.98;10.70;;;;;;;2.62;100.00;100943.22;5050174;28;20700;-75
2023/01/20 06:51:06;;;;;;;41.72;18.15;;;;;;;2.72;100.00;100945.53;5050954;28;20521;-74
2023/01/20 06:53:33;;;;;;;25.23;11.00;;;;;;;2.62;100.00;100951.44;5049948;28;20579;-73
2023/01/20 06:56:00;;;;;;;23.50;8.63;;;;;;;2.66;100.00;100949.59;5048608;28;20059;-73
2023/01/20 06:58:31;;;;;;;37.45;16.38;;;;;;;2.69;100.00;100952.47;5033216;28;20119;-75
2023/01/20 07:01:07;;;;;;;50.78;18.85;;;;;;;2.65;100.00;100954.28;5049883;28;20060;-72
2023/01/20 07:03:35;;;;;;;43.55;18.55;;;;;;;2.71;100.00;100963.06;5045331;28;20045;-74
2023/01/20 07:06:18;;;;;;;34.45;14.70;;;;;;;2.76;100.00;100962.81;5043892;28;20503;-75
2023/01/20 07:08:45;;;;;;;28.85;13.05;;;;;;;2.74;100.00;100971.38;5032787;28;20052;-76
2023/01/20 07:11:12;;;;;;;38.10;17.38;;;;;;;2.71;100.00;100960.31;5046525;28;20555;-73
2023/01/20 07:13:38;;;;;;;39.13;13.60;;;;;;;2.69;100.00;100973.53;5045047;28;20052;-74
2023/01/20 07:16:05;;;;;;;50.42;20.75;;;;;;;2.77;100.00;100975.38;5048779;28;20055;-74
2023/01/20 07:18:35;;;;;;;50.10;24.63;;;;;;;2.82;100.00;100985.28;5049961;28;20071;-74
2023/01/20 07:21:02;;;;;;;17.05;7.07;;;;;;;2.68;100.00;100971.94;5050492;28;20063;-75
2023/01/20 07:23:31;;;;;;;40.75;16.17;;;;;;;2.81;100.00;100981.75;5044426;28;20040;-74
2023/01/20 07:26:03;;;;;;;41.15;18.13;;;;;;;2.86;100.00;100988.94;5048519;28;20148;-74
2023/01/20 07:28:31;;;;;;;48.08;20.33;;;;;;;2.84;100.00;100992.00;5047933;28;20044;-75
2023/01/20 07:31:05;;;;;;;26.35;9.52;;;;;;;2.80;100.00;100993.03;5047639;28;20155;-76
2023/01/20 07:33:32;;;;;;;43.83;17.45;;;;;;;2.82;100.00;100994.28;5049207;28;20150;-75
2023/01/20 07:35:59;;;;;;;50.22;21.35;;;;;;;2.89;100.00;101005.44;5049042;28;20045;-73
2023/01/20 07:38:25;;;;;;;42.92;17.83;;;;;;;2.88;100.00;101012.06;5046215;28;20132;-74
2023/01/20 07:40:52;;;;;;;43.90;18.52;;;;;;;2.88;100.00;101019.44;5045909;28;20407;-73
2023/01/20 07:43:18;;;;;;;43.17;19.45;;;;;;;2.87;100.00;101015.13;5025675;28;20045;-75
2023/01/20 07:45:45;;;;;;;10.73;6.38;;;;;;;2.76;100.00;101020.22;5049295;28;20056;-75
2023/01/20 07:48:11;;;;;;;41.70;16.20;;;;;;;2.82;100.00;101015.31;5049680;28;20041;-75
2023/01/20 07:50:38;;;;;;;45.88;19.80;;;;;;;2.78;100.00;101019.88;5028521;28;20056;-74
2023/01/20 07:53:04;;;;;;;40.15;16.13;;;;;;;2.76;100.00;101022.16;5047535;28;20049;-75
2023/01/20 07:55:32;;;;;;;9.07;3.75;;;;;;;2.67;100.00;101019.53;5048622;28;20395;-75
2023/01/20 07:57:59;;;;;;;29.58;10.82;;;;;;;2.67;100.00;101025.00;5049362;28;20045;-73
2023/01/20 08:00:25;;;;;;;35.85;14.35;;;;;;;2.76;100.00;101027.63;5049782;28;20053;-74
2023/01/20 08:02:52;;;;;;;35.28;16.27;;;;;;;2.73;100.00;101035.34;5051665;28;20131;-74
2023/01/20 08:05:18;;;;;;;45.47;20.15;;;;;;;2.80;100.00;101037.53;5048067;28;20049;-72
2023/01/20 08:07:50;;;;;;;29.25;11.20;;;;;;;2.78;100.00;101039.81;5047715;28;20055;-73
2023/01/20 08:10:16;;;;;;;47.40;20.48;;;;;;;2.86;100.00;101038.91;5046443;28;20055;-73
2023/01/20 08:12:43;;;;;;;39.28;17.98;;;;;;;2.82;100.00;101040.72;5048412;28;20083;-73
2023/01/20 08:15:10;;;;;;;38.83;16.95;;;;;;;2.82;100.00;101043.47;5048529;28;20491;-74
2023/01/20 08:17:36;;;;;;;41.67;18.98;;;;;;;2.78;100.00;101055.41;5029504;28;20132;-75
2023/01/20 08:20:04;;;;;;;29.75;14.93;;;;;;;2.86;100.00;101047.13;5048525;28;20080;-73
2023/01/20 08:22:33;;;;;;;23.67;12.10;;;;;;;2.91;100.00;101052.38;5034932;28;20482;-73
2023/01/20 08:24:59;;;;;;;20.83;8.65;;;;;;;2.94;100.00;101053.63;5049723;28;20124;-75
2023/01/20 08:27:26;;;;;;;39.58;18.27;;;;;;;2.91;100.00;101051.56;5033601;28;20041;-74
2023/01/20 08:29:54;;;;;;;42.20;22.67;;;;;;;2.98;100.00;101060.81;5032181;28;20075;-75
2023/01/20 08:32:21;;;;;;;38.83;15.63;;;;;;;2.96;100.00;101065.03;5029009;28;20422;-73
2023/01/20 08:34:47;;;;;;;32.78;14.45;;;;;;;2.92;100.00;101064.91;5047143;28;20052;-75
2023/01/20 08:37:14;;;;;;;23.88;12.18;;;;;;;2.84;100.00;101074.00;5035946;28;20135;-74
2023/01/20 08:39:41;;;;;;;29.13;11.80;;;;;;;2.83;100.00;101072.38;5047764;28;20072;-74
2023/01/20 08:42:07;;;;;;;37.85;16.58;;;;;;;2.99;100.00;101067.88;5031633;28;20088;-75
2023/01/20 08:44:34;;;;;;;28.77;12.88;;;;;;;2.96;100.00;101068.56;5035242;28;20076;-76
2023/01/20 08:47:01;;;;;;;22.98;10.02;;;;;;;2.92;100.00;101075.03;5028228;28;20057;-74
2023/01/20 08:49:29;;;;;;;29.60;14.27;;;;;;;2.87;100.00;101084.22;5047843;28;20045;-75
2023/01/20 08:51:56;;;;;;;19.33;7.97;;;;;;;2.91;100.00;101082.44;5031693;28;20446;-75
2023/01/20 08:54:22;;;;;;;21.65;10.00;;;;;;;2.88;100.00;101085.84;5044402;28;20059;-75
2023/01/20 08:56:52;;;;;;;19.40;8.65;;;;;;;3.01;100.00;101087.50;5033146;28;20076;-74
2023/01/20 08:59:20;;;;;;;36.55;16.80;;;;;;;3.05;100.00;101076.66;5032067;28;20040;-74
2023/01/20 09:01:46;;;;;;;39.45;16.42;;;;;;;3.00;100.00;101088.59;5022075;28;20041;-76
2023/01/20 09:04:13;;;;;;;31.58;14.57;;;;;;;3.03;100.00;101077.00;5032298;28;20057;-74
2023/01/20 09:06:45;;;;;;;31.98;14.77;;;;;;;3.06;100.00;101084.53;5049637;28;20044;-74
2023/01/20 09:09:14;;;;;;;16.38;8.00;;;;;;;3.04;100.00;101088.75;5048786;28;20056;-74
2023/01/20 09:11:43;;;;;;;24.10;11.18;;;;;;;3.12;100.00;101087.84;5024765;28;20124;-73
2023/01/20 09:14:10;;;;;;;21.42;7.57;;;;;;;3.06;100.00;101095.47;5029021;28;20060;-74
2023/01/20 09:16:37;;;;;;;39.13;17.80;;;;;;;3.20;100.00;101092.44;5050102;28;20048;-74
2023/01/20 09:19:03;;;;;;;26.42;11.50;;;;;;;3.16;100.00;101088.75;5048881;28;20041;-74
2023/01/20 09:21:30;;;;;;;25.00;9.40;;;;;;;3.17;100.00;101098.56;5033821;28;20081;-74
2023/01/20 09:23:57;;;;;;;28.48;12.85;;;;;;;3.11;100.00;101100.72;5051712;28;20093;-74
2023/01/20 09:26:23;;;;;;;30.17;13.48;;;;;;;3.13;100.00;101103.91;5051804;28;20515;-74
2023/01/20 09:29:07;;;;;;;29.67;10.73;;;;;;;3.16;100.00;101097.75;5033570;28;20037;-74
2023/01/20 09:31:43;;;;;;;26.83;12.02;;;;;;;3.16;100.00;101114.16;5049616;28;20056;-73
2023/01/20 09:34:17;;;;;;;19.02;8.10;;;;;;;3.14;100.00;101113.69;5047377;28;20051;-72
2023/01/20 09:36:49;;;;;;;33.13;13.02;;;;;;;3.19;100.00;101105.28;5003861;28;20047;-75
2023/01/20 09:45:03;;;;;;;20.42;7.65;;;;;;;3.31;100.00;101113.50;5048514;28;19917;-75
2023/01/20 09:47:35;;;;;;;29.15;12.65;;;;;;;3.31;100.00;101118.19;5029020;28;20115;-73
2023/01/20 09:53:04;;;;;;;28.73;11.90;;;;;;;3.24;100.00;101113.25;5047437;28;20041;-74
2023/01/20 09:55:51;;;;;;;25.63;10.63;;;;;;;3.31;100.00;101127.19;5045397;28;20063;-74
2023/01/20 09:58:44;;;;;;;26.98;12.23;;;;;;;3.28;100.00;101116.13;5022665;28;20049;-74
2023/01/20 10:01:29;;;;;;;32.10;13.85;;;;;;;3.37;100.00;101119.59;5011947;28;20056;-74
2023/01/20 10:04:02;;;;;;;;;;;;;;;3.42;100.00;101122.91;5041630;28;20125;-70
2023/01/20 10:06:40;;;;;;;27.08;12.30;;;;;;;3.38;100.00;101126.63;5047616;28;19931;-73
2023/01/20 10:09:30;;;;;;;42.70;20.27;;;;;;;3.53;100.00;101124.03;5046433;28;20048;-72
2023/01/20 10:12:08;;;;;;;13.15;6.53;;;;;;;3.52;100.00;101127.13;5045912;28;20045;-72
2023/01/20 10:14:42;;;;;;;38.72;15.38;;;;;;;3.49;100.00;101123.13;5031917;28;20057;-73
2023/01/20 10:17:23;;;;;;;23.13;10.15;;;;;;;3.54;100.00;101131.09;5050251;28;20060;-73
2023/01/20 10:20:06;;;;;;;27.95;11.32;;;;;;;3.51;100.00;101139.22;5044916;28;20051;-75
2023/01/20 10:22:57;;;;;;;23.58;10.32;;;;;;;3.54;100.00;101130.31;5048452;28;20049;-74
2023/01/20 10:25:33;;;;;;;31.05;13.68;;;;;;;3.41;100.00;101132.22;5049166;28;20045;-74
2023/01/20 10:28:10;;;;;;;35.75;15.77;;;;;;;3.44;100.00;101153.44;5049457;28;20049;-72
2023/01/20 10:30:37;;;;;;;22.90;9.73;;;;;;;3.46;100.00;101140.22;5050464;28;20053;-72
2023/01/20 10:33:09;;;;;;;24.55;9.93;;;;;;;3.53;100.00;101145.94;5049848;28;20136;-72
2023/01/20 10:35:40;;;;;;;31.42;14.90;;;;;;;3.58;100.00;101125.75;5051825;28;20045;-73
2023/01/20 10:38:19;;;;;;;7.72;4.65;;;;;;;3.57;100.00;101137.81;5051424;28;20051;-73
2023/01/20 10:41:44;;;;;;;34.17;14.55;;;;;;;3.66;100.00;101128.41;5044795;28;20049;-73
2023/01/20 10:44:14;;;;;;;25.95;11.73;;;;;;;3.69;100.00;101127.72;5032478;28;20049;-74
2023/01/20 10:46:52;;;;;;;22.17;10.25;;;;;;;3.67;100.00;101129.97;5044720;28;20059;-73
2023/01/20 10:49:40;;;;;;;16.92;6.63;;;;;;;3.61;100.00;101123.13;5049813;28;20127;-73
2023/01/20 10:52:09;;;;;;;26.98;10.55;;;;;;;3.67;100.00;101127.25;5051631;28;20400;-72
2023/01/20 10:54:51;;;;;;;31.25;14.48;;;;;;;3.71;100.00;101119.94;5050878;28;20045;-73
2023/01/20 10:57:17;;;;;;;37.20;16.52;;;;;;;3.80;100.00;101122.56;5051846;28;20510;-73
2023/01/20 10:59:54;;;;;;;30.15;12.98;;;;;;;3.82;100.00;101120.31;5037968;28;20045;-73
2023/01/20 11:02:28;;;;;;;25.17;10.88;;;;;;;3.84;100.00;101120.75;5033499;28;20037;-73
2023/01/20 11:05:15;;;;;;;19.60;8.70;;;;;;;3.93;100.00;101127.72;5049673;28;20045;-74
2023/01/20 11:07:44;;;;;;;22.73;7.95;;;;;;;3.85;100.00;101119.63;5049956;28;20041;-72
2023/01/20 11:10:23;;;;;;;11.95;4.50;;;;;;;3.90;100.00;101127.59;5048861;28;20060;-74
2023/01/20 11:12:56;;;;;;;23.25;9.60;;;;;;;3.99;100.00;101134.56;5049961;28;20048;-73
2023/01/20 11:15:28;;;;;;;35.47;14.38;;;;;;;4.07;100.00;101130.91;5049440;28;20045;-74
2023/01/20 11:18:12;;;;;;;17.95;8.13;;;;;;;3.93;100.00;101137.84;5050258;28;20045;-73
2023/01/20 11:20:45;;;;;;;25.25;12.57;;;;;;;3.97;100.00;101134.09;5050399;28;20147;-74
2023/01/20 11:23:22;;;;;;;18.38;7.93;;;;;;;3.93;100.00;101135.13;5049704;28;20672;-74
2023/01/20 11:26:15;;;;;;;33.42;15.23;;;;;;;3.94;100.00;101131.22;5048398;28;20107;-75
2023/01/20 11:28:53;;;;;;;26.30;10.63;;;;;;;3.88;100.00;101136.16;5044981;28;20549;-73
2023/01/20 11:31:21;;;;;;;17.10;7.63;;;;;;;3.82;100.00;101134.00;5049928;28;20055;-73
2023/01/20 11:34:16;;;;;;;35.22;15.02;;;;;;;3.98;100.00;101138.44;5048749;28;20430;-73
2023/01/20 11:36:43;;;;;;;38.28;15.43;;;;;;;3.99;100.00;101139.22;5043669;28;20049;-73